Time;durP1;ratioP1;P1;durP2;ratioP2;P2;SDS_P1;SDS_P2;PMS_P1;PMS_P2;Temp;Humidity;BMP_temperature;BMP_pressure;BME280_temperature;BME280_humidity;BME280_pressure;Samples;Min_cycle;Max_cycle;Signal;HPM_P1;HPM_P2
2023/02/17 00:00:27;;;;;;;51.60;30.10;;;;;;;3.69;100.00;101260.25;5006885;28;20053;-75
2023/02/17 00:02:57;;;;;;;51.90;31.75;;;;;;;3.86;100.00;101274.81;5007501;28;20413;-76
2023/02/17 00:05:22;;;;;;;55.95;31.17;;;;;;;3.79;100.00;101268.50;5009149;28;20435;-77
2023/02/17 00:07:48;;;;;;;70.30;31.73;;;;;;;3.17;100.00;101163.00;5007349;28;20116;-76
2023/02/17 00:10:13;;;;;;;55.53;31.10;;;;;;;3.10;100.00;101153.19;5008440;28;20049;-77
2023/02/17 00:12:39;;;;;;;59.22;32.95;;;;;;;3.55;100.00;101249.31;5008866;28;20084;-77
2023/02/17 00:15:05;;;;;;;47.65;30.20;;;;;;;3.54;100.00;101227.66;5007254;28;20092;-75
2023/02/17 00:17:30;;;;;;;55.15;30.42;;;;;;;3.88;100.00;101293.06;5007559;28;20027;-75
2023/02/17 00:19:56;;;;;;;44.97;31.17;;;;;;;3.63;100.00;101247.94;5008856;28;20116;-76
2023/02/17 00:22:21;;;;;;;53.35;34.35;;;;;;;2.63;100.00;101106.28;5006766;28;20030;-74
2023/02/17 00:24:47;;;;;;;58.97;33.03;;;;;;;2.89;100.00;101130.72;5008911;28;20036;-76
2023/02/17 00:27:12;;;;;;;53.03;33.72;;;;;;;3.73;100.00;101252.66;5006838;28;20026;-80
2023/02/17 00:29:38;;;;;;;41.15;26.67;;;;;;;2.75;100.00;101095.56;5007552;28;20481;-77
2023/02/17 00:32:04;;;;;;;61.15;31.17;;;;;;;3.57;100.00;101206.16;5006576;28;20038;-79
2023/02/17 00:34:29;;;;;;;52.20;32.80;;;;;;;3.67;100.00;101218.66;5007669;28;20033;-78
2023/02/17 00:36:55;;;;;;;54.50;32.22;;;;;;;3.59;100.00;101223.56;5006883;28;20037;-78
2023/02/17 00:39:20;;;;;;;53.72;33.55;;;;;;;3.72;100.00;101237.94;5008978;28;20386;-78
2023/02/17 00:41:46;;;;;;;54.05;29.85;;;;;;;3.28;100.00;101179.03;5006099;28;20026;-77
2023/02/17 00:44:17;;;;;;;46.53;32.63;;;;;;;3.20;100.00;101167.41;5007511;28;20034;-78
2023/02/17 00:46:44;;;;;;;50.50;31.60;;;;;;;3.55;100.00;101207.78;5007835;28;20065;-77
2023/02/17 00:49:27;;;;;;;56.10;33.67;;;;;;;3.40;100.00;101187.31;5006563;28;20927;-79
2023/02/17 00:51:53;;;;;;;63.40;34.40;;;;;;;3.52;100.00;101210.28;5006940;28;20132;-77
2023/02/17 00:54:19;;;;;;;56.15;33.10;;;;;;;2.62;100.00;101062.16;5007829;28;20145;-81
2023/02/17 00:56:45;;;;;;;51.78;32.22;;;;;;;2.86;100.00;101090.84;5007250;28;20466;-75
2023/02/17 00:59:11;;;;;;;58.20;36.17;;;;;;;3.57;100.00;101201.84;5008757;28;20125;-74
2023/02/17 01:01:37;;;;;;;56.70;34.35;;;;;;;3.44;100.00;101199.59;5005104;28;20179;-76
2023/02/17 01:04:03;;;;;;;61.80;35.35;;;;;;;3.49;100.00;101174.72;5008233;28;20038;-76
2023/02/17 01:06:31;;;;;;;65.00;33.80;;;;;;;3.54;100.00;101175.78;5006155;28;20084;-76
2023/02/17 01:08:57;;;;;;;67.63;33.35;;;;;;;2.90;100.00;101041.78;5008522;28;20552;-75
2023/02/17 01:11:28;;;;;;;56.70;33.38;;;;;;;3.64;100.00;101176.16;5005616;28;20033;-76
2023/02/17 01:13:54;;;;;;;89.50;36.20;;;;;;;3.47;100.00;101165.09;5012057;28;20101;-75
2023/02/17 01:16:23;;;;;;;64.38;34.88;;;;;;;2.67;100.00;101012.31;5009881;28;20061;-76
2023/02/17 01:18:49;;;;;;;62.80;35.28;;;;;;;3.48;100.00;101146.09;5004270;28;20030;-76
2023/02/17 01:21:19;;;;;;;67.85;37.58;;;;;;;3.71;100.00;101162.59;5010274;28;20036;-75
2023/02/17 01:23:47;;;;;;;60.20;34.60;;;;;;;3.54;100.00;101121.28;4999300;28;20524;-76
2023/02/17 01:26:15;;;;;;;70.88;38.92;;;;;;;3.62;100.00;101144.94;5011870;28;20033;-77
2023/02/17 01:28:40;;;;;;;56.60;35.13;;;;;;;3.01;100.00;101039.63;5011269;28;20034;-76
2023/02/17 01:31:07;;;;;;;65.38;36.65;;;;;;;2.84;100.00;101009.53;5009920;28;20061;-76
2023/02/17 01:33:33;;;;;;;59.22;35.90;;;;;;;2.94;100.00;101004.78;5010678;28;20040;-77
2023/02/17 01:36:02;;;;;;;63.65;34.60;;;;;;;3.53;100.00;101142.84;5011969;28;20478;-76
2023/02/17 01:38:28;;;;;;;56.28;33.60;;;;;;;3.40;100.00;101108.59;5009442;28;20168;-77
2023/02/17 01:40:54;;;;;;;53.42;34.42;;;;;;;3.76;100.00;101158.47;5011956;28;20133;-78
2023/02/17 01:43:20;;;;;;;61.53;36.35;;;;;;;3.49;100.00;101119.31;5011251;28;20494;-75
2023/02/17 01:45:55;;;;;;;61.45;37.15;;;;;;;3.57;100.00;101128.31;5012087;28;20064;-77
2023/02/17 01:48:35;;;;;;;61.65;37.88;;;;;;;2.93;100.00;101007.31;5010182;28;20387;-77
2023/02/17 01:51:03;;;;;;;59.03;36.63;;;;;;;3.64;100.00;101122.53;5008976;28;20072;-75
2023/02/17 01:53:39;;;;;;;66.13;38.50;;;;;;;3.20;100.00;101063.69;5001549;28;20123;-76
2023/02/17 01:56:06;;;;;;;51.97;33.03;;;;;;;3.56;100.00;101132.63;5010058;28;20552;-75
2023/02/17 01:58:32;;;;;;;62.20;37.33;;;;;;;3.55;100.00;101106.59;5011354;28;20781;-75
2023/02/17 02:01:01;;;;;;;67.50;39.53;;;;;;;2.80;100.00;100979.13;5008420;28;20037;-76
2023/02/17 02:03:31;;;;;;;65.35;38.28;;;;;;;3.68;100.00;101136.53;5011104;28;20026;-75
2023/02/17 02:05:58;;;;;;;65.75;35.75;;;;;;;3.23;100.00;101085.47;5009428;28;20160;-75
2023/02/17 02:08:26;;;;;;;57.15;33.78;;;;;;;2.72;100.00;101002.16;5010928;28;20034;-76
2023/02/17 02:10:52;;;;;;;66.18;39.95;;;;;;;3.17;100.00;101054.97;5007522;28;20048;-74
2023/02/17 02:13:17;;;;;;;75.10;42.03;;;;;;;3.43;100.00;101101.81;5009873;28;20033;-76
2023/02/17 02:15:50;;;;;;;52.05;34.28;;;;;;;2.47;100.00;100935.50;5008760;28;20030;-75
2023/02/17 02:18:34;;;;;;;67.97;36.37;;;;;;;3.40;100.00;101108.59;4998097;28;20405;-75
2023/02/17 02:21:02;;;;;;;;;;;;;;;3.37;100.00;101083.41;5010909;28;20034;-75
2023/02/17 02:23:42;;;;;;;56.38;33.45;;;;;;;3.45;100.00;101086.31;5009773;28;19964;-77
2023/02/17 02:26:26;;;;;;;54.22;35.20;;;;;;;3.23;100.00;101098.44;5011013;28;20048;-75
2023/02/17 02:29:21;;;;;;;63.28;35.05;;;;;;;2.36;100.00;100926.38;4999336;28;20041;-75
2023/02/17 02:32:04;;;;;;;58.05;36.63;;;;;;;3.31;100.00;101102.22;5005743;28;20046;-75
2023/02/17 02:34:36;;;;;;;;;;;;;;;3.40;100.00;101093.03;5011400;28;20036;-75
2023/02/17 02:37:13;;;;;;;58.28;34.40;;;;;;;2.79;100.00;100987.75;5008644;28;19921;-76
2023/02/17 02:39:43;;;;;;;67.85;33.38;;;;;;;3.26;100.00;101075.22;5009010;28;20034;-75
2023/02/17 02:42:13;;;;;;;59.70;36.55;;;;;;;2.38;100.00;100927.34;5009662;28;20080;-76
2023/02/17 02:44:39;;;;;;;61.22;37.75;;;;;;;2.90;100.00;101017.53;5010443;28;20057;-76
2023/02/17 02:47:25;;;;;;;69.20;37.97;;;;;;;3.15;100.00;101089.44;5008041;28;20076;-73
2023/02/17 02:49:50;;;;;;;59.70;34.15;;;;;;;2.89;100.00;101041.72;5009377;28;20535;-75
2023/02/17 02:52:24;;;;;;;63.70;38.33;;;;;;;3.09;100.00;101110.81;5009572;28;20060;-75
2023/02/17 02:55:03;;;;;;;62.40;36.63;;;;;;;2.95;100.00;101080.84;5010154;28;20041;-77
2023/02/17 02:57:48;;;;;;;62.25;37.22;;;;;;;2.44;100.00;100988.03;5007936;28;20041;-76
2023/02/17 03:00:40;;;;;;;70.50;41.97;;;;;;;2.90;100.00;101100.50;5009545;28;20057;-75
2023/02/17 03:03:13;;;;;;;65.85;35.45;;;;;;;2.03;100.00;100939.69;5001511;28;20095;-76
2023/02/17 03:05:50;;;;;;;64.97;35.60;;;;;;;2.72;100.00;101083.34;5010638;28;20046;-78
2023/02/17 03:08:47;;;;;;;65.75;39.92;;;;;;;2.77;100.00;101074.91;5009474;28;20068;-77
2023/02/17 03:11:15;;;;;;;62.25;33.42;;;;;;;2.18;100.00;100994.72;4996451;28;20079;-79
2023/02/17 03:13:41;;;;;;;68.25;38.83;;;;;;;2.57;100.00;101042.94;5009758;28;20470;-81
2023/02/17 03:16:07;;;;;;;65.45;35.13;;;;;;;2.67;100.00;101030.47;5009772;28;20374;-79
2023/02/17 03:18:34;;;;;;;71.60;36.85;;;;;;;2.84;100.00;101032.88;5008840;28;20042;-75
2023/02/17 03:21:14;;;;;;;77.25;42.05;;;;;;;2.31;100.00;100955.56;5009576;28;20461;-75
2023/02/17 03:23:40;;;;;;;59.58;36.55;;;;;;;2.11;100.00;100926.25;5009257;28;20050;-77
2023/02/17 03:26:05;;;;;;;67.22;37.67;;;;;;;1.96;100.00;100909.19;5007951;28;20501;-76
2023/02/17 03:28:31;;;;;;;60.58;38.25;;;;;;;1.76;100.00;100898.00;5009878;28;20037;-75
2023/02/17 03:30:56;;;;;;;70.40;40.63;;;;;;;1.60;100.00;100923.16;5005338;28;20490;-75
2023/02/17 03:33:22;;;;;;;68.97;37.47;;;;;;;2.55;100.00;101029.91;5009687;28;20072;-75
2023/02/17 03:35:47;;;;;;;75.60;40.20;;;;;;;1.94;100.00;100888.41;5008169;28;20104;-75
2023/02/17 03:38:13;;;;;;;72.75;38.70;;;;;;;2.66;100.00;101002.75;5008615;28;20041;-78
2023/02/17 03:40:38;;;;;;;67.88;36.75;;;;;;;2.02;100.00;100906.88;5009564;28;20549;-75
2023/02/17 03:43:04;;;;;;;65.50;39.40;;;;;;;1.94;100.00;100872.88;5008951;28;20152;-76
2023/02/17 03:45:29;;;;;;;67.85;39.20;;;;;;;2.61;100.00;100988.75;5007567;28;20533;-75
2023/02/17 03:47:55;;;;;;;64.50;36.42;;;;;;;2.94;100.00;101020.31;5006851;28;20092;-75
2023/02/17 03:50:20;;;;;;;71.45;39.00;;;;;;;2.67;100.00;100985.50;5007234;28;20072;-76
2023/02/17 03:52:46;;;;;;;73.22;39.30;;;;;;;2.40;100.00;100960.25;5007106;28;20084;-78
2023/02/17 03:55:11;;;;;;;61.22;35.13;;;;;;;1.84;100.00;100869.03;5009446;28;20480;-76
2023/02/17 03:57:37;;;;;;;66.82;36.05;;;;;;;1.86;100.00;100850.97;5006403;28;20445;-75
2023/02/17 04:00:04;;;;;;;60.20;38.35;;;;;;;2.58;100.00;100993.81;5007165;28;20069;-75
2023/02/17 04:02:30;;;;;;;65.50;40.72;;;;;;;1.87;100.00;100876.03;5008320;28;20040;-75
2023/02/17 04:04:55;;;;;;;73.35;42.90;;;;;;;2.41;100.00;100968.88;5009245;28;20022;-75
2023/02/17 04:07:21;;;;;;;70.63;39.85;;;;;;;2.37;100.00;100954.94;5005473;28;20482;-75
2023/02/17 04:09:47;;;;;;;59.53;37.00;;;;;;;2.61;100.00;100998.22;5004370;28;20037;-76
2023/02/17 04:12:12;;;;;;;68.22;39.28;;;;;;;2.31;100.00;100968.50;5008260;28;21386;-77
2023/02/17 04:14:38;;;;;;;63.08;35.70;;;;;;;2.33;100.00;100964.28;5008829;28;20132;-76
2023/02/17 04:17:03;;;;;;;74.55;42.08;;;;;;;1.76;100.00;100883.34;5008144;28;20076;-77
2023/02/17 04:19:29;;;;;;;63.25;37.38;;;;;;;2.40;100.00;101001.69;5007390;28;20485;-80
2023/02/17 04:21:54;;;;;;;67.10;38.28;;;;;;;1.91;100.00;100906.41;5009224;28;20041;-77
2023/02/17 04:24:19;;;;;;;59.83;35.80;;;;;;;2.60;100.00;101017.16;5007873;28;20374;-79
2023/02/17 04:26:45;;;;;;;72.43;41.35;;;;;;;2.36;100.00;101001.47;5006378;28;20104;-78
2023/02/17 04:29:10;;;;;;;68.43;38.20;;;;;;;1.73;100.00;100877.16;5004938;28;20501;-78
2023/02/17 04:31:36;;;;;;;71.30;37.63;;;;;;;1.76;100.00;100914.41;4999192;28;20044;-75
2023/02/17 04:34:01;;;;;;;66.78;36.88;;;;;;;2.43;100.00;101013.88;5007407;28;20045;-76
2023/02/17 04:36:27;;;;;;;73.68;41.35;;;;;;;2.21;100.00;101015.53;5007559;28;20036;-75
2023/02/17 04:38:52;;;;;;;62.85;34.55;;;;;;;1.94;100.00;100953.09;5008064;28;20038;-77
2023/02/17 04:41:18;;;;;;;83.68;39.00;;;;;;;2.33;100.00;101002.25;5006662;28;20080;-76
2023/02/17 04:43:43;;;;;;;57.80;33.85;;;;;;;2.24;100.00;101015.66;5008198;28;20038;-76
2023/02/17 04:46:10;;;;;;;76.50;39.63;;;;;;;2.13;100.00;101006.56;5008139;28;20044;-77
2023/02/17 04:48:36;;;;;;;75.63;40.38;;;;;;;2.17;100.00;101015.34;5002748;28;20042;-77
2023/02/17 04:51:02;;;;;;;72.72;37.78;;;;;;;2.02;100.00;100998.31;5006425;28;20113;-78
2023/02/17 04:53:27;;;;;;;80.55;41.53;;;;;;;1.44;100.00;100875.06;5008752;28;20843;-75
2023/02/17 04:55:53;;;;;;;68.40;41.63;;;;;;;1.32;100.00;100866.75;5007374;28;20034;-75
2023/02/17 04:58:19;;;;;;;75.57;40.70;;;;;;;1.14;100.00;100891.78;5007398;28;20038;-75
2023/02/17 05:00:48;;;;;;;77.28;42.60;;;;;;;1.78;100.00;101000.72;5005873;28;20394;-75
2023/02/17 05:03:15;;;;;;;74.85;44.53;;;;;;;1.12;100.00;100904.63;5008687;28;20046;-76
2023/02/17 05:05:40;;;;;;;75.07;45.70;;;;;;;1.94;100.00;101033.31;5007601;28;20038;-76
2023/02/17 05:08:06;;;;;;;63.22;37.08;;;;;;;1.20;100.00;100884.31;5007920;28;20061;-76
2023/02/17 05:10:31;;;;;;;62.22;40.15;;;;;;;1.30;100.00;100916.63;5005387;28;20076;-76
2023/02/17 05:12:57;;;;;;;81.32;45.30;;;;;;;2.04;100.00;101043.28;5005458;28;20108;-75
2023/02/17 05:15:22;;;;;;;70.50;39.47;;;;;;;1.88;100.00;101036.53;5003548;28;20457;-78
2023/02/17 05:17:48;;;;;;;75.68;40.72;;;;;;;1.69;100.00;100993.41;4998861;28;20053;-77
2023/02/17 05:20:13;;;;;;;62.10;39.88;;;;;;;2.01;100.00;101056.06;5007162;28;20021;-75
2023/02/17 05:22:39;;;;;;;72.93;42.13;;;;;;;1.24;100.00;100919.81;5007083;28;20038;-76
2023/02/17 05:25:05;;;;;;;68.10;38.47;;;;;;;0.87;100.00;100933.63;5007454;28;20054;-76
2023/02/17 05:27:31;;;;;;;77.35;40.63;;;;;;;1.50;100.00;101036.47;4998527;28;20062;-76
2023/02/17 05:29:56;;;;;;;70.78;37.55;;;;;;;1.78;100.00;101044.69;5004735;28;20545;-77
2023/02/17 05:32:22;;;;;;;69.75;42.38;;;;;;;1.09;100.00;100929.44;5006553;28;20046;-76
2023/02/17 05:34:48;;;;;;;61.03;38.22;;;;;;;1.82;100.00;101040.53;5006402;28;20037;-75
2023/02/17 05:37:13;;;;;;;78.32;37.65;;;;;;;1.87;100.00;101046.81;5005619;28;20018;-75
2023/02/17 05:39:39;;;;;;;74.25;41.95;;;;;;;1.17;100.00;100934.16;5006860;28;20437;-75
2023/02/17 05:42:05;;;;;;;70.53;40.25;;;;;;;1.83;100.00;101071.66;5004987;28;20042;-75
2023/02/17 05:44:30;;;;;;;68.28;40.60;;;;;;;1.63;100.00;101033.63;5006663;28;20042;-77
2023/02/17 05:46:56;;;;;;;69.25;39.13;;;;;;;1.78;100.00;101055.06;5002017;28;20064;-77
2023/02/17 05:49:21;;;;;;;66.90;38.10;;;;;;;0.44;100.00;100833.44;5006701;28;20050;-75
2023/02/17 05:51:47;;;;;;;77.97;44.25;;;;;;;1.62;100.00;101009.47;5004000;28;20363;-78
2023/02/17 05:54:12;;;;;;;64.38;38.25;;;;;;;1.07;100.00;100913.88;5007155;28;20038;-76
2023/02/17 05:56:38;;;;;;;69.70;40.35;;;;;;;1.01;100.00;100917.06;5005626;28;20506;-76
2023/02/17 05:59:03;;;;;;;78.57;43.97;;;;;;;1.15;100.00;100933.22;5008448;28;20047;-78
2023/02/17 06:01:29;;;;;;;80.68;42.72;;;;;;;1.09;100.00;100935.50;5006119;28;20144;-75
2023/02/17 06:03:54;;;;;;;79.68;42.13;;;;;;;1.18;100.00;100916.97;5004790;28;20037;-78
2023/02/17 06:06:20;;;;;;;81.40;43.85;;;;;;;2.03;100.00;101063.91;5003408;28;20037;-75
2023/02/17 06:08:46;;;;;;;68.90;41.17;;;;;;;1.84;100.00;101055.31;5003823;28;20752;-76
2023/02/17 06:11:11;;;;;;;76.18;40.45;;;;;;;1.66;100.00;101014.00;5007466;28;20037;-76
2023/02/17 06:13:37;;;;;;;76.30;43.78;;;;;;;2.06;100.00;101087.34;5008357;28;20026;-75
2023/02/17 06:16:03;;;;;;;71.97;43.22;;;;;;;2.01;100.00;101117.31;5006751;28;20034;-77
2023/02/17 06:18:28;;;;;;;80.03;46.08;;;;;;;1.43;100.00;100981.91;5003799;28;20042;-76
2023/02/17 06:20:55;;;;;;;69.35;39.15;;;;;;;1.55;100.00;101003.97;5004043;28;20087;-78
2023/02/17 06:23:22;;;;;;;74.05;43.33;;;;;;;2.03;100.00;101079.44;5009781;28;20138;-76
2023/02/17 06:25:48;;;;;;;78.60;45.20;;;;;;;2.17;100.00;101130.13;5009812;28;20049;-76
2023/02/17 06:28:14;;;;;;;81.25;46.70;;;;;;;1.76;100.00;101020.47;5009412;28;20034;-76
2023/02/17 06:30:39;;;;;;;85.03;44.33;;;;;;;1.87;100.00;101019.25;5008462;28;20489;-77
2023/02/17 06:33:05;;;;;;;88.25;47.67;;;;;;;1.90;100.00;101003.84;5009809;28;20390;-76
2023/02/17 06:35:30;;;;;;;81.53;44.20;;;;;;;2.27;100.00;101139.19;5010432;28;20033;-77
2023/02/17 06:37:56;;;;;;;83.85;44.33;;;;;;;1.72;100.00;101026.31;4996184;28;20042;-77
2023/02/17 06:40:22;;;;;;;84.38;51.38;;;;;;;2.58;100.00;101115.56;5009840;28;20038;-78
2023/02/17 06:42:47;;;;;;;79.78;45.97;;;;;;;2.25;100.00;101014.00;5007247;28;20034;-77
2023/02/17 06:45:13;;;;;;;74.35;43.58;;;;;;;2.95;100.00;101137.88;4998362;28;20375;-77
2023/02/17 06:47:38;;;;;;;85.07;46.03;;;;;;;2.57;100.00;101058.50;5007595;28;20096;-76
2023/02/17 06:50:05;;;;;;;67.82;40.78;;;;;;;3.05;100.00;101178.91;5004330;28;20070;-76
2023/02/17 06:52:30;;;;;;;89.47;49.10;;;;;;;3.03;100.00;101183.16;5009170;28;20089;-77
2023/02/17 06:54:56;;;;;;;87.20;42.60;;;;;;;2.61;100.00;101078.53;5010343;28;20030;-77
2023/02/17 06:57:21;;;;;;;73.82;45.05;;;;;;;3.01;100.00;101157.97;5001583;28;20056;-77
2023/02/17 06:59:47;;;;;;;73.90;43.15;;;;;;;2.85;100.00;101118.44;5005458;28;20030;-78
2023/02/17 07:02:13;;;;;;;61.17;42.63;;;;;;;3.08;100.00;101157.41;5004435;28;20034;-78
2023/02/17 07:04:42;;;;;;;90.95;46.95;;;;;;;3.37;100.00;101189.75;5007824;28;20532;-76
2023/02/17 07:07:09;;;;;;;78.07;46.13;;;;;;;3.32;100.00;101175.69;5013966;28;20088;-79
2023/02/17 07:09:34;;;;;;;91.22;44.75;;;;;;;2.58;100.00;101073.22;5011955;28;20049;-76
2023/02/17 07:12:01;;;;;;;62.25;42.60;;;;;;;3.38;100.00;101199.31;5002215;28;20026;-78
2023/02/17 07:14:26;;;;;;;71.47;41.65;;;;;;;2.82;100.00;101115.72;5002866;28;20034;-77
2023/02/17 07:16:52;;;;;;;73.10;42.42;;;;;;;3.31;100.00;101216.31;5003947;28;20148;-76
2023/02/17 07:19:18;;;;;;;76.15;43.17;;;;;;;3.48;100.00;101237.78;5006823;28;20697;-76
2023/02/17 07:21:43;;;;;;;83.85;44.33;;;;;;;3.24;100.00;101229.84;5008004;28;20397;-78
2023/02/17 07:24:09;;;;;;;70.72;39.85;;;;;;;2.85;100.00;101177.16;5006661;28;20438;-78
2023/02/17 07:26:37;;;;;;;74.00;45.10;;;;;;;3.19;100.00;101231.38;5004908;28;20069;-78
2023/02/17 07:29:04;;;;;;;93.88;47.53;;;;;;;3.22;100.00;101241.88;5013719;28;20041;-77
2023/02/17 07:31:29;;;;;;;81.97;46.50;;;;;;;2.98;100.00;101214.88;5010197;28;20038;-77
2023/02/17 07:33:55;;;;;;;81.25;43.53;;;;;;;2.56;100.00;101101.66;5008471;28;20064;-80
2023/02/17 07:36:20;;;;;;;83.30;45.92;;;;;;;2.85;100.00;101210.84;5001744;28;20466;-78
2023/02/17 07:38:46;;;;;;;109.45;49.65;;;;;;;2.67;100.00;101097.81;5006114;28;20037;-76
2023/02/17 07:41:17;;;;;;;82.50;47.35;;;;;;;3.29;100.00;101210.19;5009035;28;20438;-77
2023/02/17 07:43:42;;;;;;;91.00;50.85;;;;;;;2.78;100.00;101093.09;5008847;28;20029;-78
2023/02/17 07:46:09;;;;;;;82.45;48.75;;;;;;;3.68;100.00;101229.97;5007823;28;20555;-77
2023/02/17 07:48:35;;;;;;;79.13;48.15;;;;;;;3.58;100.00;101246.81;5006344;28;20073;-78
2023/02/17 07:51:08;;;;;;;88.35;47.97;;;;;;;3.70;100.00;101241.25;5005052;28;20038;-78
2023/02/17 07:53:35;;;;;;;76.03;44.63;;;;;;;3.60;100.00;101227.03;5007281;28;20129;-82
2023/02/17 07:56:05;;;;;;;88.05;44.22;;;;;;;3.25;100.00;101114.03;5009077;28;20120;-80
2023/02/17 07:58:32;;;;;;;78.45;44.15;;;;;;;3.99;100.00;101237.25;5007702;28;20029;-78
2023/02/17 08:01:03;;;;;;;72.05;45.10;;;;;;;4.10;100.00;101233.38;5008731;28;20386;-76
2023/02/17 08:03:28;;;;;;;75.88;43.28;;;;;;;4.15;100.00;101265.63;5008468;28;20060;-79
2023/02/17 08:05:54;;;;;;;78.55;43.40;;;;;;;4.44;100.00;101242.47;5003072;28;20474;-76
2023/02/17 08:13:48;;;;;;;77.78;47.90;;;;;;;5.03;100.00;101250.72;5006304;28;20041;-82
2023/02/17 08:16:13;;;;;;;84.18;46.42;;;;;;;5.02;100.00;101222.94;5002636;28;20397;-81
2023/02/17 08:18:39;;;;;;;84.90;47.50;;;;;;;4.67;100.00;101174.88;5008081;28;20121;-82
2023/02/17 08:21:04;;;;;;;88.97;46.13;;;;;;;5.10;100.00;101249.22;5005462;28;20034;-80
2023/02/17 08:23:30;;;;;;;73.30;45.47;;;;;;;5.15;100.00;101253.78;5008445;28;20095;-78
2023/02/17 08:25:57;;;;;;;86.20;49.75;;;;;;;5.22;100.00;101286.97;5007911;28;20128;-82
2023/02/17 08:28:23;;;;;;;82.80;46.13;;;;;;;5.59;100.00;101288.25;5007854;28;20029;-83
2023/02/17 08:30:48;;;;;;;83.07;47.63;;;;;;;5.87;100.00;101321.31;5004705;28;20383;-82
2023/02/17 08:33:16;;;;;;;82.32;50.75;;;;;;;5.73;100.00;101299.13;5006685;28;20079;-80
2023/02/17 08:35:43;;;;;;;94.78;53.25;;;;;;;5.65;100.00;101329.25;5008118;28;20042;-80
2023/02/17 08:38:10;;;;;;;85.50;46.67;;;;;;;4.96;100.00;101222.72;5008032;28;20026;-84
2023/02/17 08:40:37;;;;;;;86.63;48.40;;;;;;;5.04;100.00;101193.56;4999176;28;20041;-82
2023/02/17 08:43:02;;;;;;;87.25;49.63;;;;;;;5.77;100.00;101284.53;4993611;28;20142;-82
2023/02/17 08:45:29;;;;;;;125.55;54.97;;;;;;;4.81;100.00;101192.75;5001704;28;20042;-84
2023/02/17 08:47:54;;;;;;;82.35;49.03;;;;;;;5.84;100.00;101310.81;4996602;28;20564;-82
2023/02/17 08:50:20;;;;;;;91.57;56.45;;;;;;;5.58;100.00;101216.22;5003514;28;20073;-85
2023/02/17 08:52:46;;;;;;;92.40;55.50;;;;;;;6.30;100.00;101314.97;5008307;28;20504;-84
2023/02/17 08:55:12;;;;;;;102.22;50.20;;;;;;;6.28;100.00;101337.47;4997664;28;20026;-85
2023/02/17 08:57:38;;;;;;;93.15;53.47;;;;;;;6.44;100.00;101353.59;5003841;28;20030;-83
2023/02/17 09:00:06;;;;;;;88.93;53.25;;;;;;;5.70;100.00;101218.31;5007620;28;20038;-81
2023/02/17 09:02:31;;;;;;;92.03;50.90;;;;;;;5.91;100.00;101244.19;5005350;28;20061;-77
2023/02/17 09:04:57;;;;;;;90.40;56.35;;;;;;;6.44;100.00;101349.28;5003551;28;20034;-81
2023/02/17 09:07:22;;;;;;;92.80;51.50;;;;;;;6.61;100.00;101351.56;5007410;28;20391;-79
2023/02/17 09:09:48;;;;;;;81.10;48.78;;;;;;;6.58;100.00;101328.88;5007290;28;20045;-81
2023/02/17 09:12:13;;;;;;;73.43;48.55;;;;;;;6.05;100.00;101222.09;5006509;28;20030;-79
2023/02/17 09:14:39;;;;;;;90.72;52.50;;;;;;;5.95;100.00;101225.25;5005235;28;20114;-80
2023/02/17 09:17:04;;;;;;;112.18;69.47;;;;;;;6.09;100.00;101306.47;5006248;28;20046;-80
2023/02/17 09:19:30;;;;;;;88.30;52.30;;;;;;;6.61;100.00;101339.38;5006601;28;20137;-81
2023/02/17 09:21:55;;;;;;;83.72;47.70;;;;;;;7.03;100.00;101346.75;4995065;28;20125;-81
2023/02/17 09:24:21;;;;;;;119.47;73.07;;;;;;;6.83;100.00;101273.09;5001848;28;20042;-80
2023/02/17 09:26:46;;;;;;;106.47;71.07;;;;;;;7.42;100.00;101371.31;5003822;28;20484;-80
2023/02/17 09:29:12;;;;;;;93.50;60.83;;;;;;;7.33;100.00;101372.84;5005631;28;20514;-81
2023/02/17 09:31:37;;;;;;;95.68;55.33;;;;;;;6.63;100.00;101261.22;5002149;28;20037;-80
2023/02/17 09:34:03;;;;;;;105.22;68.13;;;;;;;6.74;100.00;101259.78;5009183;28;20030;-82
2023/02/17 09:36:33;;;;;;;114.72;70.70;;;;;;;7.39;100.00;101366.91;5011314;28;20540;-81
2023/02/17 09:38:59;;;;;;;90.78;68.30;;;;;;;7.71;100.00;101365.19;5009848;28;20026;-79
2023/02/17 09:41:36;;;;;;;123.85;71.97;;;;;;;8.04;100.00;101388.72;5010988;28;20379;-80
2023/02/17 09:44:06;;;;;;;95.15;65.82;;;;;;;7.86;100.00;101349.03;5009122;28;20522;-80
2023/02/17 09:46:31;;;;;;;99.30;66.70;;;;;;;8.05;100.00;101386.97;5007989;28;20170;-80
2023/02/17 09:49:02;;;;;;;104.22;69.47;;;;;;;7.92;100.00;101367.50;5003992;28;20467;-79
2023/02/17 09:51:34;;;;;;;102.85;68.53;;;;;;;7.42;100.00;101286.03;5007654;28;20115;-78
2023/02/17 09:54:12;;;;;;;111.72;65.97;;;;;;;8.14;100.00;101376.75;5011398;28;20394;-78
2023/02/17 09:56:40;;;;;;;103.57;72.13;;;;;;;7.35;100.00;101227.59;5009149;28;20038;-78
2023/02/17 09:59:41;;;;;;;100.22;65.28;;;;;;;8.08;100.00;101375.72;5006117;28;20034;-79
2023/02/17 10:02:43;;;;;;;99.57;68.97;;;;;;;8.25;100.00;101358.75;5007561;28;20537;-79
2023/02/17 10:05:13;;;;;;;107.82;72.72;;;;;;;7.94;100.00;101368.41;5010010;28;20045;-79
2023/02/17 10:07:49;;;;;;;94.38;65.88;;;;;;;8.02;100.00;101285.84;5010222;28;20076;-77
2023/02/17 10:10:20;;;;;;;93.63;64.65;;;;;;;8.28;100.00;101342.25;5006714;28;20037;-77
2023/02/17 10:12:52;;;;;;;83.28;61.55;;;;;;;8.65;100.00;101364.97;5006923;28;20038;-77
2023/02/17 10:15:24;;;;;;;88.00;61.95;;;;;;;8.69;100.00;101372.03;5006869;28;20441;-78
2023/02/17 10:18:15;;;;;;;106.55;64.88;;;;;;;8.76;100.00;101358.25;5010503;28;20092;-78
2023/02/17 10:21:08;;;;;;;86.78;63.30;;;;;;;8.18;100.00;101260.97;5005155;28;20053;-78
2023/02/17 10:23:34;;;;;;;102.47;65.32;;;;;;;8.83;100.00;101357.53;4999223;28;20042;-77
2023/02/17 10:26:33;;;;;;;77.38;57.28;;;;;;;8.19;100.00;101230.47;5008269;28;20049;-78
2023/02/17 10:29:15;;;;;;;90.45;59.28;;;;;;;9.03;100.00;101338.75;5010474;28;20087;-78
2023/02/17 10:31:46;;;;;;;83.47;57.40;;;;;;;9.00;100.00;101347.41;5005321;28;20427;-79
2023/02/17 10:34:17;;;;;;;88.85;58.13;;;;;;;9.03;100.00;101359.69;5011130;28;20042;-79
2023/02/17 10:36:52;;;;;;;112.13;63.80;;;;;;;8.73;100.00;101336.34;5008198;28;20029;-79
2023/02/17 10:39:48;;;;;;;89.60;58.53;;;;;;;9.05;100.00;101361.50;5009581;28;20041;-79
2023/02/17 10:42:32;;;;;;;71.13;54.53;;;;;;;9.17;100.00;101355.63;5006237;28;20065;-79
2023/02/17 10:45:29;;;;;;;85.82;59.30;;;;;;;9.34;100.00;101363.84;5003291;28;20060;-80
2023/02/17 10:48:15;;;;;;;85.50;54.97;;;;;;;9.00;100.00;101254.94;5002922;28;20080;-80
2023/02/17 10:50:42;;;;;;;92.30;54.88;;;;;;;9.02;100.00;101241.00;4999250;28;20048;-79
2023/02/17 10:53:17;;;;;;;90.55;56.88;;;;;;;9.23;100.00;101250.16;5002583;28;20117;-80
2023/02/17 10:55:57;;;;;;;86.43;60.45;;;;;;;8.48;98.60;101240.75;4996549;28;20781;-82
2023/02/17 10:58:44;;;;;;;87.22;55.80;;;;;;;8.95;100.00;101209.47;5005420;28;20521;-80
2023/02/17 11:01:11;;;;;;;83.72;57.03;;;;;;;9.45;99.53;101199.91;5004404;28;20038;-77
2023/02/17 11:03:39;;;;;;;88.10;56.47;;;;;;;10.37;95.97;101341.25;4995192;28;20042;-80
2023/02/17 11:06:21;;;;;;;85.88;57.72;;;;;;;10.30;96.67;101330.69;5001542;28;20390;-79
2023/02/17 11:08:55;;;;;;;87.65;57.95;;;;;;;9.66;95.70;101257.03;5003974;28;20072;-81
2023/02/17 11:11:23;;;;;;;82.05;55.60;;;;;;;10.15;96.42;101305.03;4999122;28;20497;-82
2023/02/17 11:14:06;;;;;;;81.15;56.25;;;;;;;10.00;99.38;101327.53;5002494;28;20509;-79
2023/02/17 11:16:39;;;;;;;79.13;56.13;;;;;;;9.57;96.76;101241.13;4999335;28;20061;-79
2023/02/17 11:19:06;;;;;;;88.35;55.58;;;;;;;10.44;92.25;101330.00;5009775;28;20125;-80
2023/02/17 11:21:32;;;;;;;85.47;53.40;;;;;;;10.73;92.99;101320.81;5008963;28;20096;-80